sensor_id;sensor_type;location;lat;lon;timestamp;P1;durP1;ratioP1;P2;durP2;ratioP2
3795;SDS011;1913;50.660;7.834;2023-05-15T00:00:08;13.57;;;10.30;;
3795;SDS011;1913;50.660;7.834;2023-05-15T00:02:36;14.03;;;10.60;;
3795;SDS011;1913;50.660;7.834;2023-05-15T00:05:08;11.07;;;9.67;;
3795;SDS011;1913;50.660;7.834;2023-05-15T00:07:34;16.83;;;12.00;;
3795;SDS011;1913;50.660;7.834;2023-05-15T00:10:00;13.50;;;10.20;;
3795;SDS011;1913;50.660;7.834;2023-05-15T00:12:25;15.03;;;10.30;;
3795;SDS011;1913;50.660;7.834;2023-05-15T00:14:51;13.53;;;10.17;;
3795;SDS011;1913;50.660;7.834;2023-05-15T00:17:16;15.57;;;11.03;;
3795;SDS011;1913;50.660;7.834;2023-05-15T00:19:42;15.00;;;9.97;;
3795;SDS011;1913;50.660;7.834;2023-05-15T00:22:07;13.30;;;9.37;;
3795;SDS011;1913;50.660;7.834;2023-05-15T00:24:33;17.10;;;10.10;;
3795;SDS011;1913;50.660;7.834;2023-05-15T00:26:59;16.10;;;10.80;;
3795;SDS011;1913;50.660;7.834;2023-05-15T00:29:25;18.37;;;12.77;;
3795;SDS011;1913;50.660;7.834;2023-05-15T00:31:50;17.20;;;11.70;;
3795;SDS011;1913;50.660;7.834;2023-05-15T00:34:15;19.27;;;11.10;;
3795;SDS011;1913;50.660;7.834;2023-05-15T00:36:41;15.10;;;11.07;;
3795;SDS011;1913;50.660;7.834;2023-05-15T00:39:06;16.67;;;11.87;;
3795;SDS011;1913;50.660;7.834;2023-05-15T00:41:31;16.97;;;10.93;;
3795;SDS011;1913;50.660;7.834;2023-05-15T00:43:59;13.40;;;10.63;;
3795;SDS011;1913;50.660;7.834;2023-05-15T00:46:26;25.00;;;12.70;;
3795;SDS011;1913;50.660;7.834;2023-05-15T00:48:53;16.23;;;11.40;;
3795;SDS011;1913;50.660;7.834;2023-05-15T00:51:19;14.37;;;10.30;;
3795;SDS011;1913;50.660;7.834;2023-05-15T00:53:45;14.03;;;9.90;;
3795;SDS011;1913;50.660;7.834;2023-05-15T00:56:11;17.53;;;10.10;;
3795;SDS011;1913;50.660;7.834;2023-05-15T00:58:36;14.40;;;10.60;;
3795;SDS011;1913;50.660;7.834;2023-05-15T01:01:02;19.00;;;11.37;;
3795;SDS011;1913;50.660;7.834;2023-05-15T01:03:28;16.57;;;11.17;;
3795;SDS011;1913;50.660;7.834;2023-05-15T01:05:54;15.20;;;11.30;;
3795;SDS011;1913;50.660;7.834;2023-05-15T01:08:20;16.27;;;11.50;;
3795;SDS011;1913;50.660;7.834;2023-05-15T01:10:51;19.10;;;11.77;;
3795;SDS011;1913;50.660;7.834;2023-05-15T01:13:18;22.40;;;12.07;;
3795;SDS011;1913;50.660;7.834;2023-05-15T01:15:45;15.60;;;11.17;;
3795;SDS011;1913;50.660;7.834;2023-05-15T01:18:11;18.77;;;12.00;;
3795;SDS011;1913;50.660;7.834;2023-05-15T01:23:37;16.70;;;10.60;;
3795;SDS011;1913;50.660;7.834;2023-05-15T01:31:53;16.50;;;12.10;;
3795;SDS011;1913;50.660;7.834;2023-05-15T01:34:28;16.80;;;11.10;;
3795;SDS011;1913;50.660;7.834;2023-05-15T01:37:02;17.50;;;12.43;;
3795;SDS011;1913;50.660;7.834;2023-05-15T01:39:28;18.27;;;13.00;;
3795;SDS011;1913;50.660;7.834;2023-05-15T01:41:59;15.50;;;11.17;;
3795;SDS011;1913;50.660;7.834;2023-05-15T01:44:31;23.13;;;13.50;;
3795;SDS011;1913;50.660;7.834;2023-05-15T01:47:06;20.60;;;13.33;;
3795;SDS011;1913;50.660;7.834;2023-05-15T01:49:34;16.93;;;11.50;;
3795;SDS011;1913;50.660;7.834;2023-05-15T01:52:03;19.90;;;12.90;;
3795;SDS011;1913;50.660;7.834;2023-05-15T01:54:32;17.30;;;12.23;;
3795;SDS011;1913;50.660;7.834;2023-05-15T01:56:58;15.87;;;11.37;;
3795;SDS011;1913;50.660;7.834;2023-05-15T01:59:24;18.13;;;12.40;;
3795;SDS011;1913;50.660;7.834;2023-05-15T02:01:50;19.83;;;12.13;;
3795;SDS011;1913;50.660;7.834;2023-05-15T02:04:16;18.53;;;12.47;;
3795;SDS011;1913;50.660;7.834;2023-05-15T02:06:43;22.43;;;13.53;;
3795;SDS011;1913;50.660;7.834;2023-05-15T02:09:09;19.07;;;13.07;;
3795;SDS011;1913;50.660;7.834;2023-05-15T02:11:35;19.70;;;13.23;;
3795;SDS011;1913;50.660;7.834;2023-05-15T02:14:01;18.87;;;12.53;;
3795;SDS011;1913;50.660;7.834;2023-05-15T02:16:28;20.53;;;13.00;;
3795;SDS011;1913;50.660;7.834;2023-05-15T02:18:53;15.50;;;12.00;;
3795;SDS011;1913;50.660;7.834;2023-05-15T02:21:18;21.93;;;13.13;;
3795;SDS011;1913;50.660;7.834;2023-05-15T02:23:44;16.33;;;11.70;;
3795;SDS011;1913;50.660;7.834;2023-05-15T02:28:57;22.30;;;13.83;;
3795;SDS011;1913;50.660;7.834;2023-05-15T02:31:33;17.70;;;12.57;;
3795;SDS011;1913;50.660;7.834;2023-05-15T02:34:06;18.67;;;13.20;;
3795;SDS011;1913;50.660;7.834;2023-05-15T02:36:50;18.27;;;12.50;;
3795;SDS011;1913;50.660;7.834;2023-05-15T02:39:20;17.03;;;11.43;;
3795;SDS011;1913;50.660;7.834;2023-05-15T02:41:49;18.47;;;11.97;;
3795;SDS011;1913;50.660;7.834;2023-05-15T02:44:16;16.80;;;11.77;;
3795;SDS011;1913;50.660;7.834;2023-05-15T02:46:43;16.93;;;11.43;;
3795;SDS011;1913;50.660;7.834;2023-05-15T02:49:11;17.63;;;12.23;;
3795;SDS011;1913;50.660;7.834;2023-05-15T02:51:38;17.43;;;11.47;;
3795;SDS011;1913;50.660;7.834;2023-05-15T02:54:03;17.87;;;11.90;;
3795;SDS011;1913;50.660;7.834;2023-05-15T02:56:29;17.37;;;12.20;;
3795;SDS011;1913;50.660;7.834;2023-05-15T02:58:54;17.63;;;12.27;;
3795;SDS011;1913;50.660;7.834;2023-05-15T03:01:20;21.60;;;13.13;;
3795;SDS011;1913;50.660;7.834;2023-05-15T03:03:46;16.37;;;10.10;;
3795;SDS011;1913;50.660;7.834;2023-05-15T03:06:11;19.93;;;10.37;;
3795;SDS011;1913;50.660;7.834;2023-05-15T03:08:36;14.30;;;9.43;;
3795;SDS011;1913;50.660;7.834;2023-05-15T03:11:02;13.23;;;10.07;;
3795;SDS011;1913;50.660;7.834;2023-05-15T03:13:27;20.53;;;11.60;;
3795;SDS011;1913;50.660;7.834;2023-05-15T03:15:52;19.17;;;11.53;;
3795;SDS011;1913;50.660;7.834;2023-05-15T03:18:17;16.10;;;11.07;;
3795;SDS011;1913;50.660;7.834;2023-05-15T03:20:43;16.27;;;10.90;;
3795;SDS011;1913;50.660;7.834;2023-05-15T03:23:09;21.53;;;12.60;;
3795;SDS011;1913;50.660;7.834;2023-05-15T03:25:34;16.00;;;10.40;;
3795;SDS011;1913;50.660;7.834;2023-05-15T03:27:59;16.37;;;12.23;;
3795;SDS011;1913;50.660;7.834;2023-05-15T03:30:25;16.60;;;12.00;;
3795;SDS011;1913;50.660;7.834;2023-05-15T03:32:50;18.50;;;12.70;;
3795;SDS011;1913;50.660;7.834;2023-05-15T03:35:15;19.63;;;12.73;;
3795;SDS011;1913;50.660;7.834;2023-05-15T03:37:41;17.33;;;11.63;;
3795;SDS011;1913;50.660;7.834;2023-05-15T03:40:07;21.37;;;12.03;;
3795;SDS011;1913;50.660;7.834;2023-05-15T03:42:33;16.70;;;11.10;;
3795;SDS011;1913;50.660;7.834;2023-05-15T03:44:58;18.37;;;11.50;;
3795;SDS011;1913;50.660;7.834;2023-05-15T03:47:24;18.87;;;12.50;;
3795;SDS011;1913;50.660;7.834;2023-05-15T03:49:49;17.17;;;11.70;;
3795;SDS011;1913;50.660;7.834;2023-05-15T03:52:14;12.20;;;9.60;;
3795;SDS011;1913;50.660;7.834;2023-05-15T03:54:40;25.53;;;9.97;;
3795;SDS011;1913;50.660;7.834;2023-05-15T03:57:06;14.60;;;11.00;;
3795;SDS011;1913;50.660;7.834;2023-05-15T03:59:31;21.90;;;12.10;;
3795;SDS011;1913;50.660;7.834;2023-05-15T04:01:57;13.17;;;9.70;;
3795;SDS011;1913;50.660;7.834;2023-05-15T04:04:22;18.37;;;11.47;;
3795;SDS011;1913;50.660;7.834;2023-05-15T04:06:48;15.10;;;10.87;;
3795;SDS011;1913;50.660;7.834;2023-05-15T04:09:14;16.80;;;9.50;;
3795;SDS011;1913;50.660;7.834;2023-05-15T04:11:39;19.90;;;12.37;;
3795;SDS011;1913;50.660;7.834;2023-05-15T04:14:05;19.50;;;10.97;;
3795;SDS011;1913;50.660;7.834;2023-05-15T04:16:30;21.40;;;13.40;;
3795;SDS011;1913;50.660;7.834;2023-05-15T04:18:55;19.43;;;10.97;;
3795;SDS011;1913;50.660;7.834;2023-05-15T04:21:21;19.40;;;12.30;;
3795;SDS011;1913;50.660;7.834;2023-05-15T04:23:46;23.00;;;13.20;;
3795;SDS011;1913;50.660;7.834;2023-05-15T04:26:11;42.37;;;18.50;;
3795;SDS011;1913;50.660;7.834;2023-05-15T04:28:37;118.43;;;33.67;;
3795;SDS011;1913;50.660;7.834;2023-05-15T04:31:02;280.17;;;41.23;;
3795;SDS011;1913;50.660;7.834;2023-05-15T04:33:27;267.63;;;38.87;;
3795;SDS011;1913;50.660;7.834;2023-05-15T04:35:53;263.13;;;37.10;;
3795;SDS011;1913;50.660;7.834;2023-05-15T04:38:18;478.40;;;55.57;;
3795;SDS011;1913;50.660;7.834;2023-05-15T04:40:44;63.50;;;27.07;;
3795;SDS011;1913;50.660;7.834;2023-05-15T04:43:09;158.33;;;34.73;;
3795;SDS011;1913;50.660;7.834;2023-05-15T04:45:34;148.47;;;36.67;;
3795;SDS011;1913;50.660;7.834;2023-05-15T04:48:00;76.17;;;32.63;;
3795;SDS011;1913;50.660;7.834;2023-05-15T04:50:25;57.07;;;30.60;;
3795;SDS011;1913;50.660;7.834;2023-05-15T04:52:50;371.63;;;56.03;;
3795;SDS011;1913;50.660;7.834;2023-05-15T04:55:16;221.97;;;50.10;;
3795;SDS011;1913;50.660;7.834;2023-05-15T04:57:41;215.73;;;47.23;;
3795;SDS011;1913;50.660;7.834;2023-05-15T05:00:07;78.57;;;37.77;;
3795;SDS011;1913;50.660;7.834;2023-05-15T05:02:36;579.87;;;84.10;;
3795;SDS011;1913;50.660;7.834;2023-05-15T05:05:03;470.57;;;71.80;;
3795;SDS011;1913;50.660;7.834;2023-05-15T05:07:29;561.23;;;82.53;;
3795;SDS011;1913;50.660;7.834;2023-05-15T05:09:54;82.23;;;38.40;;
3795;SDS011;1913;50.660;7.834;2023-05-15T05:12:19;276.93;;;59.97;;
3795;SDS011;1913;50.660;7.834;2023-05-15T05:14:45;467.80;;;72.63;;
3795;SDS011;1913;50.660;7.834;2023-05-15T05:17:10;197.50;;;49.43;;
3795;SDS011;1913;50.660;7.834;2023-05-15T05:19:36;92.53;;;41.63;;
3795;SDS011;1913;50.660;7.834;2023-05-15T05:22:02;148.77;;;50.83;;
3795;SDS011;1913;50.660;7.834;2023-05-15T05:24:29;148.40;;;49.03;;
3795;SDS011;1913;50.660;7.834;2023-05-15T05:26:59;583.33;;;84.77;;
3795;SDS011;1913;50.660;7.834;2023-05-15T05:29:25;664.30;;;86.57;;
3795;SDS011;1913;50.660;7.834;2023-05-15T05:31:51;314.10;;;61.40;;
3795;SDS011;1913;50.660;7.834;2023-05-15T05:34:17;688.97;;;94.20;;
3795;SDS011;1913;50.660;7.834;2023-05-15T05:36:43;526.70;;;80.87;;
3795;SDS011;1913;50.660;7.834;2023-05-15T05:39:08;376.67;;;66.40;;
3795;SDS011;1913;50.660;7.834;2023-05-15T05:41:33;633.60;;;86.30;;
3795;SDS011;1913;50.660;7.834;2023-05-15T05:43:59;290.60;;;64.60;;
3795;SDS011;1913;50.660;7.834;2023-05-15T05:46:24;185.30;;;55.40;;
3795;SDS011;1913;50.660;7.834;2023-05-15T05:48:53;375.73;;;68.50;;
3795;SDS011;1913;50.660;7.834;2023-05-15T05:51:18;434.17;;;80.60;;
3795;SDS011;1913;50.660;7.834;2023-05-15T05:53:43;354.00;;;72.07;;
3795;SDS011;1913;50.660;7.834;2023-05-15T05:56:09;293.93;;;67.90;;
3795;SDS011;1913;50.660;7.834;2023-05-15T05:58:35;288.37;;;65.50;;
3795;SDS011;1913;50.660;7.834;2023-05-15T06:01:00;246.10;;;63.63;;
3795;SDS011;1913;50.660;7.834;2023-05-15T06:03:26;243.97;;;62.17;;
3795;SDS011;1913;50.660;7.834;2023-05-15T06:05:51;277.43;;;63.13;;
3795;SDS011;1913;50.660;7.834;2023-05-15T06:08:17;290.53;;;64.50;;
3795;SDS011;1913;50.660;7.834;2023-05-15T06:10:43;230.63;;;61.20;;
3795;SDS011;1913;50.660;7.834;2023-05-15T06:13:09;230.97;;;57.90;;
3795;SDS011;1913;50.660;7.834;2023-05-15T06:15:35;240.40;;;59.30;;
3795;SDS011;1913;50.660;7.834;2023-05-15T06:18:01;243.93;;;60.73;;
3795;SDS011;1913;50.660;7.834;2023-05-15T06:20:26;190.97;;;57.03;;
3795;SDS011;1913;50.660;7.834;2023-05-15T06:22:51;230.13;;;58.50;;
3795;SDS011;1913;50.660;7.834;2023-05-15T06:25:17;261.27;;;61.27;;
3795;SDS011;1913;50.660;7.834;2023-05-15T06:27:42;201.87;;;52.77;;
3795;SDS011;1913;50.660;7.834;2023-05-15T06:30:08;216.07;;;57.10;;
3795;SDS011;1913;50.660;7.834;2023-05-15T06:32:34;250.50;;;58.00;;
3795;SDS011;1913;50.660;7.834;2023-05-15T06:35:00;275.67;;;63.27;;
3795;SDS011;1913;50.660;7.834;2023-05-15T06:37:29;208.73;;;58.70;;
3795;SDS011;1913;50.660;7.834;2023-05-15T06:39:54;182.60;;;56.27;;
3795;SDS011;1913;50.660;7.834;2023-05-15T06:42:20;196.13;;;53.83;;
3795;SDS011;1913;50.660;7.834;2023-05-15T06:44:48;186.90;;;56.60;;
3795;SDS011;1913;50.660;7.834;2023-05-15T06:47:13;161.30;;;53.70;;
3795;SDS011;1913;50.660;7.834;2023-05-15T06:49:39;198.40;;;59.47;;
3795;SDS011;1913;50.660;7.834;2023-05-15T06:52:05;153.33;;;52.80;;
3795;SDS011;1913;50.660;7.834;2023-05-15T06:54:30;161.90;;;54.27;;
3795;SDS011;1913;50.660;7.834;2023-05-15T06:56:56;157.30;;;51.83;;
3795;SDS011;1913;50.660;7.834;2023-05-15T06:59:21;147.80;;;50.87;;
3795;SDS011;1913;50.660;7.834;2023-05-15T07:01:46;141.07;;;48.53;;
3795;SDS011;1913;50.660;7.834;2023-05-15T07:04:11;149.57;;;51.43;;
3795;SDS011;1913;50.660;7.834;2023-05-15T07:06:37;128.53;;;48.87;;
3795;SDS011;1913;50.660;7.834;2023-05-15T07:09:02;142.20;;;50.50;;
3795;SDS011;1913;50.660;7.834;2023-05-15T07:11:28;139.10;;;51.73;;
3795;SDS011;1913;50.660;7.834;2023-05-15T07:13:54;157.03;;;53.23;;
3795;SDS011;1913;50.660;7.834;2023-05-15T07:16:20;115.87;;;46.00;;
3795;SDS011;1913;50.660;7.834;2023-05-15T07:18:45;120.40;;;46.17;;
3795;SDS011;1913;50.660;7.834;2023-05-15T07:21:10;135.43;;;48.57;;
3795;SDS011;1913;50.660;7.834;2023-05-15T07:23:36;124.40;;;49.23;;
3795;SDS011;1913;50.660;7.834;2023-05-15T07:26:02;139.97;;;48.23;;
3795;SDS011;1913;50.660;7.834;2023-05-15T07:28:27;122.83;;;49.60;;
3795;SDS011;1913;50.660;7.834;2023-05-15T07:30:52;117.67;;;47.50;;
3795;SDS011;1913;50.660;7.834;2023-05-15T07:33:18;122.83;;;49.47;;
3795;SDS011;1913;50.660;7.834;2023-05-15T07:35:43;115.50;;;47.10;;
3795;SDS011;1913;50.660;7.834;2023-05-15T07:38:10;109.83;;;45.03;;
3795;SDS011;1913;50.660;7.834;2023-05-15T07:40:35;119.30;;;47.00;;
3795;SDS011;1913;50.660;7.834;2023-05-15T07:43:01;118.27;;;45.70;;
3795;SDS011;1913;50.660;7.834;2023-05-15T07:45:26;108.27;;;45.57;;
3795;SDS011;1913;50.660;7.834;2023-05-15T07:47:52;95.00;;;42.70;;
3795;SDS011;1913;50.660;7.834;2023-05-15T07:50:18;108.07;;;43.57;;
3795;SDS011;1913;50.660;7.834;2023-05-15T07:52:44;104.13;;;44.70;;
3795;SDS011;1913;50.660;7.834;2023-05-15T07:55:09;113.23;;;45.30;;
3795;SDS011;1913;50.660;7.834;2023-05-15T07:57:35;93.67;;;42.87;;
3795;SDS011;1913;50.660;7.834;2023-05-15T08:00:01;97.13;;;42.10;;
3795;SDS011;1913;50.660;7.834;2023-05-15T08:02:33;104.67;;;43.50;;
3795;SDS011;1913;50.660;7.834;2023-05-15T08:04:58;91.27;;;41.57;;
3795;SDS011;1913;50.660;7.834;2023-05-15T08:07:24;95.20;;;42.00;;
3795;SDS011;1913;50.660;7.834;2023-05-15T08:09:49;84.10;;;39.77;;
3795;SDS011;1913;50.660;7.834;2023-05-15T08:12:19;103.27;;;43.33;;
3795;SDS011;1913;50.660;7.834;2023-05-15T08:17:17;89.40;;;41.27;;
3795;SDS011;1913;50.660;7.834;2023-05-15T08:19:43;92.60;;;41.83;;
3795;SDS011;1913;50.660;7.834;2023-05-15T08:22:08;95.40;;;43.40;;
3795;SDS011;1913;50.660;7.834;2023-05-15T08:24:34;95.83;;;43.50;;
3795;SDS011;1913;50.660;7.834;2023-05-15T08:26:59;79.40;;;41.10;;
3795;SDS011;1913;50.660;7.834;2023-05-15T08:29:25;76.37;;;39.40;;
3795;SDS011;1913;50.660;7.834;2023-05-15T08:31:50;80.77;;;40.63;;
3795;SDS011;1913;50.660;7.834;2023-05-15T08:34:16;91.30;;;41.37;;
3795;SDS011;1913;50.660;7.834;2023-05-15T08:36:41;84.57;;;40.80;;
3795;SDS011;1913;50.660;7.834;2023-05-15T08:39:06;79.13;;;41.70;;
3795;SDS011;1913;50.660;7.834;2023-05-15T08:41:37;82.30;;;41.63;;
3795;SDS011;1913;50.660;7.834;2023-05-15T08:44:12;82.90;;;39.70;;
3795;SDS011;1913;50.660;7.834;2023-05-15T08:46:38;75.17;;;39.10;;
3795;SDS011;1913;50.660;7.834;2023-05-15T08:49:08;74.07;;;38.93;;
3795;SDS011;1913;50.660;7.834;2023-05-15T08:51:38;83.63;;;43.00;;
3795;SDS011;1913;50.660;7.834;2023-05-15T08:54:04;86.00;;;42.00;;
3795;SDS011;1913;50.660;7.834;2023-05-15T08:56:30;94.47;;;43.13;;
3795;SDS011;1913;50.660;7.834;2023-05-15T08:58:55;79.73;;;42.17;;
3795;SDS011;1913;50.660;7.834;2023-05-15T09:01:21;79.43;;;40.50;;
3795;SDS011;1913;50.660;7.834;2023-05-15T09:03:46;78.00;;;41.63;;
3795;SDS011;1913;50.660;7.834;2023-05-15T09:06:12;67.40;;;38.20;;
3795;SDS011;1913;50.660;7.834;2023-05-15T09:08:38;88.20;;;41.30;;
3795;SDS011;1913;50.660;7.834;2023-05-15T09:11:05;65.97;;;38.00;;
3795;SDS011;1913;50.660;7.834;2023-05-15T09:13:32;71.57;;;40.87;;
3795;SDS011;1913;50.660;7.834;2023-05-15T09:15:57;76.63;;;41.67;;
3795;SDS011;1913;50.660;7.834;2023-05-15T09:18:23;79.27;;;42.60;;
3795;SDS011;1913;50.660;7.834;2023-05-15T09:20:49;78.13;;;43.93;;
3795;SDS011;1913;50.660;7.834;2023-05-15T09:23:21;90.00;;;46.03;;
3795;SDS011;1913;50.660;7.834;2023-05-15T09:25:48;85.13;;;44.53;;
3795;SDS011;1913;50.660;7.834;2023-05-15T09:28:27;88.03;;;46.77;;
3795;SDS011;1913;50.660;7.834;2023-05-15T09:33:29;74.30;;;41.10;;
3795;SDS011;1913;50.660;7.834;2023-05-15T09:35:56;85.73;;;44.23;;
3795;SDS011;1913;50.660;7.834;2023-05-15T09:38:22;79.30;;;46.27;;
3795;SDS011;1913;50.660;7.834;2023-05-15T09:40:47;78.50;;;43.67;;
3795;SDS011;1913;50.660;7.834;2023-05-15T09:43:12;78.37;;;44.17;;
3795;SDS011;1913;50.660;7.834;2023-05-15T09:45:38;76.60;;;45.50;;
3795;SDS011;1913;50.660;7.834;2023-05-15T09:48:03;81.57;;;45.53;;
3795;SDS011;1913;50.660;7.834;2023-05-15T09:50:33;83.70;;;45.27;;
3795;SDS011;1913;50.660;7.834;2023-05-15T09:53:01;72.30;;;43.40;;
3795;SDS011;1913;50.660;7.834;2023-05-15T09:55:29;84.87;;;45.27;;
3795;SDS011;1913;50.660;7.834;2023-05-15T10:00:37;72.67;;;41.17;;
3795;SDS011;1913;50.660;7.834;2023-05-15T10:03:05;80.20;;;46.37;;
3795;SDS011;1913;50.660;7.834;2023-05-15T10:05:31;70.07;;;44.00;;
3795;SDS011;1913;50.660;7.834;2023-05-15T10:07:57;68.50;;;41.50;;
3795;SDS011;1913;50.660;7.834;2023-05-15T10:10:24;75.97;;;45.50;;
3795;SDS011;1913;50.660;7.834;2023-05-15T10:12:50;76.77;;;45.13;;
3795;SDS011;1913;50.660;7.834;2023-05-15T10:15:18;73.80;;;46.53;;
3795;SDS011;1913;50.660;7.834;2023-05-15T10:17:48;76.20;;;44.60;;
3795;SDS011;1913;50.660;7.834;2023-05-15T10:20:15;79.90;;;43.70;;
3795;SDS011;1913;50.660;7.834;2023-05-15T10:22:44;57.30;;;38.87;;
3795;SDS011;1913;50.660;7.834;2023-05-15T10:25:17;62.77;;;40.60;;
3795;SDS011;1913;50.660;7.834;2023-05-15T10:27:49;70.90;;;42.10;;
3795;SDS011;1913;50.660;7.834;2023-05-15T10:30:15;63.07;;;39.03;;
3795;SDS011;1913;50.660;7.834;2023-05-15T10:32:41;56.87;;;38.17;;
3795;SDS011;1913;50.660;7.834;2023-05-15T10:35:11;65.53;;;39.17;;
3795;SDS011;1913;50.660;7.834;2023-05-15T10:37:39;64.07;;;38.97;;
3795;SDS011;1913;50.660;7.834;2023-05-15T10:40:08;57.77;;;37.07;;
3795;SDS011;1913;50.660;7.834;2023-05-15T10:42:37;50.70;;;36.83;;
3795;SDS011;1913;50.660;7.834;2023-05-15T10:45:09;54.00;;;34.70;;
3795;SDS011;1913;50.660;7.834;2023-05-15T10:47:35;50.00;;;33.13;;
3795;SDS011;1913;50.660;7.834;2023-05-15T10:50:05;52.07;;;34.50;;
3795;SDS011;1913;50.660;7.834;2023-05-15T10:52:31;51.80;;;32.77;;
3795;SDS011;1913;50.660;7.834;2023-05-15T10:54:58;49.90;;;35.30;;
3795;SDS011;1913;50.660;7.834;2023-05-15T10:57:24;46.67;;;31.50;;
3795;SDS011;1913;50.660;7.834;2023-05-15T10:59:49;50.23;;;31.80;;
3795;SDS011;1913;50.660;7.834;2023-05-15T11:02:24;54.60;;;34.47;;
3795;SDS011;1913;50.660;7.834;2023-05-15T11:04:57;57.90;;;36.67;;
3795;SDS011;1913;50.660;7.834;2023-05-15T11:07:24;55.37;;;35.37;;
3795;SDS011;1913;50.660;7.834;2023-05-15T11:09:50;53.27;;;36.00;;
3795;SDS011;1913;50.660;7.834;2023-05-15T11:12:17;47.87;;;33.37;;
3795;SDS011;1913;50.660;7.834;2023-05-15T11:14:43;49.70;;;34.83;;
3795;SDS011;1913;50.660;7.834;2023-05-15T11:17:31;48.63;;;34.50;;
3795;SDS011;1913;50.660;7.834;2023-05-15T11:19:57;46.60;;;32.40;;
3795;SDS011;1913;50.660;7.834;2023-05-15T11:22:30;42.63;;;31.30;;
3795;SDS011;1913;50.660;7.834;2023-05-15T11:25:01;46.67;;;32.77;;
3795;SDS011;1913;50.660;7.834;2023-05-15T11:27:45;39.97;;;30.30;;
3795;SDS011;1913;50.660;7.834;2023-05-15T11:30:18;44.23;;;29.50;;
3795;SDS011;1913;50.660;7.834;2023-05-15T11:35:31;41.70;;;31.00;;
3795;SDS011;1913;50.660;7.834;2023-05-15T11:40:27;45.70;;;31.47;;
3795;SDS011;1913;50.660;7.834;2023-05-15T11:45:30;45.63;;;32.67;;
3795;SDS011;1913;50.660;7.834;2023-05-15T11:48:00;43.30;;;29.77;;
3795;SDS011;1913;50.660;7.834;2023-05-15T11:50:28;43.23;;;29.70;;
3795;SDS011;1913;50.660;7.834;2023-05-15T11:52:55;39.00;;;29.00;;
3795;SDS011;1913;50.660;7.834;2023-05-15T11:55:21;43.10;;;29.70;;
3795;SDS011;1913;50.660;7.834;2023-05-15T11:57:47;40.13;;;29.80;;
3795;SDS011;1913;50.660;7.834;2023-05-15T12:00:12;52.93;;;31.73;;
3795;SDS011;1913;50.660;7.834;2023-05-15T12:02:38;42.33;;;29.90;;
3795;SDS011;1913;50.660;7.834;2023-05-15T12:05:07;46.80;;;32.60;;
3795;SDS011;1913;50.660;7.834;2023-05-15T12:07:37;53.70;;;33.93;;
3795;SDS011;1913;50.660;7.834;2023-05-15T12:10:05;46.03;;;32.30;;
3795;SDS011;1913;50.660;7.834;2023-05-15T12:12:31;45.00;;;31.20;;
3795;SDS011;1913;50.660;7.834;2023-05-15T12:14:57;42.10;;;31.30;;
3795;SDS011;1913;50.660;7.834;2023-05-15T12:17:23;41.23;;;28.70;;
3795;SDS011;1913;50.660;7.834;2023-05-15T12:19:49;42.30;;;29.10;;
3795;SDS011;1913;50.660;7.834;2023-05-15T12:22:16;39.80;;;28.73;;
3795;SDS011;1913;50.660;7.834;2023-05-15T12:24:43;43.17;;;30.27;;
3795;SDS011;1913;50.660;7.834;2023-05-15T12:27:09;45.53;;;28.33;;
3795;SDS011;1913;50.660;7.834;2023-05-15T12:29:35;42.00;;;30.07;;
3795;SDS011;1913;50.660;7.834;2023-05-15T12:32:01;39.90;;;27.00;;
3795;SDS011;1913;50.660;7.834;2023-05-15T12:34:27;33.83;;;26.37;;
3795;SDS011;1913;50.660;7.834;2023-05-15T12:36:52;32.83;;;25.40;;
3795;SDS011;1913;50.660;7.834;2023-05-15T12:39:18;35.37;;;27.30;;
3795;SDS011;1913;50.660;7.834;2023-05-15T12:41:43;30.27;;;23.93;;
3795;SDS011;1913;50.660;7.834;2023-05-15T12:44:18;30.07;;;23.50;;
3795;SDS011;1913;50.660;7.834;2023-05-15T12:46:45;30.03;;;22.63;;
3795;SDS011;1913;50.660;7.834;2023-05-15T12:49:10;31.33;;;23.10;;
3795;SDS011;1913;50.660;7.834;2023-05-15T12:51:42;29.87;;;23.47;;
3795;SDS011;1913;50.660;7.834;2023-05-15T12:54:17;26.10;;;22.17;;
3795;SDS011;1913;50.660;7.834;2023-05-15T12:56:43;32.40;;;21.30;;
3795;SDS011;1913;50.660;7.834;2023-05-15T12:59:09;29.47;;;21.83;;
3795;SDS011;1913;50.660;7.834;2023-05-15T13:01:35;28.03;;;21.93;;
3795;SDS011;1913;50.660;7.834;2023-05-15T13:04:01;28.40;;;19.63;;
3795;SDS011;1913;50.660;7.834;2023-05-15T13:06:27;23.97;;;18.57;;
3795;SDS011;1913;50.660;7.834;2023-05-15T13:08:53;23.13;;;20.30;;
3795;SDS011;1913;50.660;7.834;2023-05-15T13:11:18;22.63;;;19.37;;
3795;SDS011;1913;50.660;7.834;2023-05-15T13:13:48;23.30;;;20.57;;
3795;SDS011;1913;50.660;7.834;2023-05-15T13:16:18;24.80;;;20.57;;
3795;SDS011;1913;50.660;7.834;2023-05-15T13:18:43;25.90;;;21.57;;
3795;SDS011;1913;50.660;7.834;2023-05-15T13:21:09;22.63;;;19.93;;
3795;SDS011;1913;50.660;7.834;2023-05-15T13:23:34;25.17;;;20.40;;
3795;SDS011;1913;50.660;7.834;2023-05-15T13:26:00;28.60;;;20.17;;
3795;SDS011;1913;50.660;7.834;2023-05-15T13:28:25;26.53;;;21.10;;
3795;SDS011;1913;50.660;7.834;2023-05-15T13:30:50;24.33;;;19.40;;
3795;SDS011;1913;50.660;7.834;2023-05-15T13:33:16;24.70;;;17.40;;
3795;SDS011;1913;50.660;7.834;2023-05-15T13:35:41;26.80;;;17.83;;
3795;SDS011;1913;50.660;7.834;2023-05-15T13:38:07;26.43;;;19.30;;
3795;SDS011;1913;50.660;7.834;2023-05-15T13:40:32;26.60;;;21.00;;
3795;SDS011;1913;50.660;7.834;2023-05-15T13:43:01;27.53;;;19.53;;
3795;SDS011;1913;50.660;7.834;2023-05-15T13:45:26;26.73;;;20.83;;
3795;SDS011;1913;50.660;7.834;2023-05-15T13:47:51;24.50;;;20.40;;
3795;SDS011;1913;50.660;7.834;2023-05-15T13:50:18;22.83;;;16.53;;
3795;SDS011;1913;50.660;7.834;2023-05-15T13:52:43;23.77;;;17.60;;
3795;SDS011;1913;50.660;7.834;2023-05-15T13:55:11;22.00;;;18.30;;
3795;SDS011;1913;50.660;7.834;2023-05-15T13:57:37;21.40;;;17.23;;
3795;SDS011;1913;50.660;7.834;2023-05-15T14:00:07;20.83;;;16.60;;
3795;SDS011;1913;50.660;7.834;2023-05-15T14:02:40;24.07;;;14.20;;
3795;SDS011;1913;50.660;7.834;2023-05-15T14:05:07;17.77;;;13.30;;
3795;SDS011;1913;50.660;7.834;2023-05-15T14:07:33;18.67;;;13.40;;
3795;SDS011;1913;50.660;7.834;2023-05-15T14:09:59;14.73;;;12.10;;
3795;SDS011;1913;50.660;7.834;2023-05-15T14:12:27;19.23;;;12.93;;
3795;SDS011;1913;50.660;7.834;2023-05-15T14:14:52;17.73;;;13.00;;
3795;SDS011;1913;50.660;7.834;2023-05-15T14:17:18;13.03;;;10.60;;
3795;SDS011;1913;50.660;7.834;2023-05-15T14:19:43;12.93;;;9.77;;
3795;SDS011;1913;50.660;7.834;2023-05-15T14:22:09;18.40;;;10.73;;
3795;SDS011;1913;50.660;7.834;2023-05-15T14:24:35;13.40;;;9.50;;
3795;SDS011;1913;50.660;7.834;2023-05-15T14:27:00;20.73;;;10.57;;
3795;SDS011;1913;50.660;7.834;2023-05-15T14:29:26;12.83;;;10.10;;
3795;SDS011;1913;50.660;7.834;2023-05-15T14:31:51;13.00;;;9.40;;
3795;SDS011;1913;50.660;7.834;2023-05-15T14:34:17;12.47;;;8.13;;
3795;SDS011;1913;50.660;7.834;2023-05-15T14:36:43;11.53;;;8.67;;
3795;SDS011;1913;50.660;7.834;2023-05-15T14:39:10;9.50;;;7.60;;
3795;SDS011;1913;50.660;7.834;2023-05-15T14:41:35;9.70;;;7.03;;
3795;SDS011;1913;50.660;7.834;2023-05-15T14:44:01;10.70;;;6.90;;
3795;SDS011;1913;50.660;7.834;2023-05-15T14:46:27;10.47;;;7.37;;
3795;SDS011;1913;50.660;7.834;2023-05-15T14:48:52;8.37;;;7.20;;
3795;SDS011;1913;50.660;7.834;2023-05-15T14:51:17;10.00;;;6.93;;
3795;SDS011;1913;50.660;7.834;2023-05-15T14:53:43;10.23;;;6.73;;
3795;SDS011;1913;50.660;7.834;2023-05-15T14:56:08;7.20;;;6.33;;
3795;SDS011;1913;50.660;7.834;2023-05-15T14:58:33;15.63;;;7.13;;
3795;SDS011;1913;50.660;7.834;2023-05-15T15:00:59;10.80;;;7.57;;
3795;SDS011;1913;50.660;7.834;2023-05-15T15:03:24;9.80;;;8.20;;
3795;SDS011;1913;50.660;7.834;2023-05-15T15:05:50;9.10;;;7.30;;
3795;SDS011;1913;50.660;7.834;2023-05-15T15:08:18;8.83;;;7.93;;